createdAt,value
2017-10-01T00:00:01.206Z,66
2017-10-01T00:01:09.145Z,66
2017-10-01T00:02:17.238Z,67
2017-10-01T00:03:25.325Z,66
2017-10-01T00:04:33.411Z,66
2017-10-01T00:05:41.494Z,66
2017-10-01T00:06:49.587Z,66
2017-10-01T00:07:57.668Z,66
2017-10-01T00:09:05.756Z,66
2017-10-01T00:10:13.842Z,66
2017-10-01T00:11:21.947Z,66
2017-10-01T00:12:30.013Z,66
2017-10-01T00:13:38.099Z,66
2017-10-01T00:14:46.186Z,66
2017-10-01T00:15:54.273Z,66
2017-10-01T00:17:02.357Z,66
2017-10-01T00:18:10.443Z,66
2017-10-01T00:19:18.530Z,66
2017-10-01T00:20:26.616Z,66
2017-10-01T00:21:34.705Z,66
2017-10-01T00:22:42.793Z,65
2017-10-01T00:23:50.876Z,65
2017-10-01T00:24:58.964Z,66
2017-10-01T00:26:07.050Z,66
2017-10-01T00:27:15.405Z,65
2017-10-01T00:28:23.491Z,65
2017-10-01T00:29:31.577Z,65
2017-10-01T00:30:39.666Z,65
2017-10-01T00:31:47.751Z,65
2017-10-01T00:32:55.837Z,65
2017-10-01T00:34:03.924Z,65
2017-10-01T00:35:12.014Z,65
2017-10-01T00:36:20.097Z,65
2017-10-01T00:37:28.183Z,65
2017-10-01T00:38:36.269Z,65
2017-10-01T00:39:44.355Z,65
2017-10-01T00:40:52.441Z,65
2017-10-01T00:42:00.528Z,65
2017-10-01T00:43:14.082Z,65
2017-10-01T00:44:16.707Z,65
2017-10-01T00:45:24.788Z,65
2017-10-01T00:46:32.886Z,65
2017-10-01T00:47:40.972Z,65
2017-10-01T00:48:49.060Z,64
2017-10-01T00:49:57.150Z,65
2017-10-01T00:51:05.233Z,65
2017-10-01T00:52:13.321Z,64
2017-10-01T00:53:21.408Z,64
2017-10-01T00:54:29.490Z,64
2017-10-01T00:55:37.578Z,64
2017-10-01T00:56:45.689Z,64
2017-10-01T00:57:53.751Z,64
2017-10-01T00:59:01.840Z,64
2017-10-01T01:00:09.925Z,64
2017-10-01T01:01:18.012Z,64
2017-10-01T01:02:26.101Z,64
2017-10-01T01:03:34.197Z,64
2017-10-01T01:04:42.284Z,64
2017-10-01T01:05:50.373Z,64
2017-10-01T01:06:58.459Z,64
2017-10-01T01:08:06.549Z,64
2017-10-01T01:09:14.628Z,64
2017-10-01T01:10:22.717Z,64
2017-10-01T01:11:30.805Z,64
2017-10-01T01:12:38.893Z,64
2017-10-01T01:13:46.988Z,64
2017-10-01T01:14:55.075Z,64
2017-10-01T01:16:03.160Z,64
2017-10-01T01:17:11.245Z,64
2017-10-01T01:18:19.333Z,63
2017-10-01T01:19:27.420Z,64
2017-10-01T01:20:35.507Z,64
2017-10-01T01:21:43.597Z,64
2017-10-01T01:22:51.684Z,63
2017-10-01T01:23:59.774Z,63
2017-10-01T01:25:07.857Z,64
2017-10-01T01:26:15.942Z,63
2017-10-01T01:27:24.048Z,63
2017-10-01T01:28:32.115Z,63
2017-10-01T01:29:40.203Z,63
2017-10-01T01:30:48.291Z,63
2017-10-01T01:31:56.378Z,63
2017-10-01T01:33:04.467Z,63
2017-10-01T01:34:12.552Z,63
2017-10-01T01:35:20.641Z,63
2017-10-01T01:36:28.725Z,63
2017-10-01T01:37:36.820Z,63
2017-10-01T01:38:44.907Z,63
2017-10-01T01:39:53.004Z,63
2017-10-01T01:41:01.090Z,63
2017-10-01T01:42:09.176Z,63
2017-10-01T01:43:17.261Z,63
2017-10-01T01:44:25.348Z,63
2017-10-01T01:45:33.435Z,63
2017-10-01T01:46:41.522Z,63
2017-10-01T01:47:49.612Z,63
2017-10-01T01:48:57.699Z,63
2017-10-01T01:50:05.791Z,63
2017-10-01T01:51:13.871Z,63
2017-10-01T01:52:21.958Z,63
2017-10-01T01:53:30.045Z,63
2017-10-01T01:54:38.131Z,63
2017-10-01T01:55:46.218Z,62
2017-10-01T01:56:54.686Z,62
2017-10-01T01:58:02.393Z,63
2017-10-01T01:59:10.481Z,63
2017-10-01T02:00:18.568Z,62
2017-10-01T02:01:26.655Z,62
2017-10-01T02:02:34.740Z,62
2017-10-01T02:03:42.827Z,62
2017-10-01T02:04:50.981Z,62
2017-10-01T02:05:59.001Z,62
2017-10-01T02:07:07.087Z,62
2017-10-01T02:08:15.175Z,62
2017-10-01T02:09:23.263Z,63
2017-10-01T02:10:31.520Z,62
2017-10-01T02:11:39.614Z,62
2017-10-01T02:12:47.694Z,63
2017-10-01T02:13:55.779Z,62
2017-10-01T02:15:03.869Z,62
2017-10-01T02:16:11.954Z,62
2017-10-01T02:17:20.041Z,62
2017-10-01T02:18:28.129Z,62
2017-10-01T02:19:36.217Z,62
2017-10-01T02:20:44.304Z,63
2017-10-01T02:21:52.391Z,62
2017-10-01T02:23:00.478Z,62
2017-10-01T02:24:08.563Z,62
2017-10-01T02:25:16.650Z,62
2017-10-01T02:26:24.738Z,62
2017-10-01T02:27:32.827Z,62
2017-10-01T02:28:40.919Z,62
2017-10-01T02:29:49.008Z,62
2017-10-01T02:30:57.100Z,62
2017-10-01T02:32:05.181Z,62
2017-10-01T02:33:13.266Z,62
2017-10-01T02:34:21.355Z,62
2017-10-01T02:35:29.442Z,62
2017-10-01T02:36:37.529Z,62
2017-10-01T02:37:45.618Z,62
2017-10-01T02:38:53.705Z,61
2017-10-01T02:40:01.792Z,61
2017-10-01T02:41:09.878Z,61
2017-10-01T02:42:17.970Z,61
2017-10-01T02:43:26.058Z,62
2017-10-01T02:44:34.144Z,62
2017-10-01T02:45:42.232Z,61
2017-10-01T02:46:50.344Z,62
2017-10-01T02:47:58.407Z,62
2017-10-01T02:49:06.493Z,62
2017-10-01T02:50:14.579Z,62
2017-10-01T02:51:22.668Z,61
2017-10-01T02:52:30.754Z,62
2017-10-01T02:53:38.847Z,62
2017-10-01T02:54:46.929Z,62
2017-10-01T02:55:55.016Z,62
2017-10-01T02:57:03.102Z,62
2017-10-01T02:58:11.191Z,62
2017-10-01T02:59:19.277Z,62
2017-10-01T03:00:27.364Z,62
2017-10-01T03:01:35.454Z,61
2017-10-01T03:02:43.542Z,61
2017-10-01T03:03:51.625Z,61
2017-10-01T03:04:59.713Z,62
2017-10-01T03:06:08.092Z,62
2017-10-01T03:07:16.181Z,62
2017-10-01T03:08:24.268Z,61
2017-10-01T03:09:32.355Z,61
2017-10-01T03:10:40.440Z,61
2017-10-01T03:11:48.527Z,61
2017-10-01T03:12:56.620Z,61
2017-10-01T03:14:04.707Z,61
2017-10-01T03:15:12.794Z,62
2017-10-01T03:16:20.883Z,62
2017-10-01T03:17:28.974Z,62
2017-10-01T03:18:37.059Z,62
2017-10-01T03:19:45.146Z,61
2017-10-01T03:20:53.233Z,62
2017-10-01T03:22:01.321Z,61
2017-10-01T03:23:09.420Z,61
2017-10-01T03:24:17.506Z,61
2017-10-01T03:25:25.593Z,61
2017-10-01T03:26:33.678Z,61
2017-10-01T03:27:41.767Z,61
2017-10-01T03:28:49.850Z,61
2017-10-01T03:29:57.937Z,61
2017-10-01T03:31:06.028Z,61
2017-10-01T03:32:14.114Z,61
2017-10-01T03:33:22.200Z,61
2017-10-01T03:34:30.290Z,61
2017-10-01T03:35:38.378Z,61
2017-10-01T03:36:46.460Z,61
2017-10-01T03:37:54.549Z,61
2017-10-01T03:39:02.705Z,61
2017-10-01T03:40:11.114Z,61
2017-10-01T03:41:19.209Z,61
2017-10-01T03:42:27.294Z,61
2017-10-01T03:43:35.383Z,61
2017-10-01T03:44:43.468Z,61
2017-10-01T03:45:51.556Z,61
2017-10-01T03:46:59.643Z,61
2017-10-01T03:48:07.729Z,61
2017-10-01T03:49:15.818Z,61
2017-10-01T03:50:23.904Z,61
2017-10-01T03:51:31.996Z,61
2017-10-01T03:52:40.077Z,61
2017-10-01T03:53:48.163Z,61
2017-10-01T03:54:56.251Z,61
2017-10-01T03:56:04.336Z,61
2017-10-01T03:57:12.426Z,61
2017-10-01T03:58:20.512Z,61
2017-10-01T03:59:28.604Z,61
2017-10-01T04:00:36.689Z,61
2017-10-01T04:01:44.776Z,61
2017-10-01T04:02:52.863Z,61
2017-10-01T04:04:00.972Z,61
2017-10-01T04:05:09.059Z,61
2017-10-01T04:06:17.147Z,61
2017-10-01T04:07:25.232Z,61
2017-10-01T04:08:33.320Z,61
2017-10-01T04:09:41.409Z,61
2017-10-01T04:10:49.504Z,61
2017-10-01T04:11:57.592Z,61
2017-10-01T04:13:05.679Z,61
2017-10-01T04:14:13.766Z,61
2017-10-01T04:15:21.852Z,61
2017-10-01T04:16:29.951Z,61
2017-10-01T04:17:38.036Z,61
2017-10-01T04:18:46.124Z,61
2017-10-01T04:19:54.213Z,61
2017-10-01T04:21:02.298Z,61
2017-10-01T04:22:10.390Z,61
2017-10-01T04:23:18.471Z,61
2017-10-01T04:24:26.559Z,61
2017-10-01T04:25:34.845Z,61
2017-10-01T04:26:42.931Z,61
2017-10-01T04:27:51.018Z,61
2017-10-01T04:28:59.109Z,61
2017-10-01T04:30:07.193Z,61
2017-10-01T04:31:15.279Z,61
2017-10-01T04:32:23.368Z,61
2017-10-01T04:33:31.453Z,61
2017-10-01T04:34:39.551Z,61
2017-10-01T04:35:47.637Z,61
2017-10-01T04:36:55.786Z,61
2017-10-01T04:38:03.820Z,61
2017-10-01T04:39:11.909Z,60
2017-10-01T04:40:19.995Z,61
2017-10-01T04:41:28.082Z,61
2017-10-01T04:42:36.185Z,61
2017-10-01T04:43:44.252Z,61
2017-10-01T04:44:52.342Z,60
2017-10-01T04:46:00.434Z,61
2017-10-01T04:47:08.517Z,60
2017-10-01T04:48:16.603Z,61
2017-10-01T04:49:24.689Z,61
2017-10-01T04:50:32.776Z,61
2017-10-01T04:51:40.863Z,61
2017-10-01T04:52:48.947Z,61
2017-10-01T04:53:57.035Z,61
2017-10-01T04:55:05.124Z,61
2017-10-01T04:56:13.209Z,60
2017-10-01T04:57:21.425Z,61
2017-10-01T04:58:29.512Z,61
2017-10-01T04:59:37.599Z,61
2017-10-01T05:00:45.686Z,60
2017-10-01T05:01:53.771Z,61
2017-10-01T05:03:01.975Z,61
2017-10-01T05:04:10.062Z,61
2017-10-01T05:05:18.147Z,61
2017-10-01T05:06:26.234Z,61
2017-10-01T05:07:34.321Z,61
2017-10-01T05:08:42.410Z,61
2017-10-01T05:09:50.497Z,61
2017-10-01T05:10:58.583Z,61
2017-10-01T05:12:06.672Z,61
2017-10-01T05:13:14.759Z,61
2017-10-01T05:14:22.843Z,61
2017-10-01T05:15:30.950Z,61
2017-10-01T05:16:39.018Z,61
2017-10-01T05:17:47.103Z,61
2017-10-01T05:18:55.201Z,60
2017-10-01T05:20:03.287Z,61
2017-10-01T05:21:11.380Z,61
2017-10-01T05:22:19.460Z,61
2017-10-01T05:23:27.546Z,61
2017-10-01T05:24:35.634Z,61
2017-10-01T05:25:43.721Z,61
2017-10-01T05:26:51.809Z,61
2017-10-01T05:27:59.893Z,61
2017-10-01T05:29:07.980Z,61
2017-10-01T05:30:16.068Z,60
2017-10-01T05:31:24.153Z,61
2017-10-01T05:32:32.240Z,60
2017-10-01T05:33:40.325Z,60
2017-10-01T05:34:48.412Z,61
2017-10-01T05:35:56.526Z,60
2017-10-01T05:37:04.586Z,60
2017-10-01T05:38:12.672Z,61
2017-10-01T05:39:20.760Z,60
2017-10-01T05:40:28.845Z,60
2017-10-01T05:41:36.932Z,60
2017-10-01T05:42:45.018Z,60
2017-10-01T05:43:53.105Z,60
2017-10-01T05:45:01.187Z,60
2017-10-01T05:46:09.277Z,60
2017-10-01T05:47:17.364Z,60
2017-10-01T05:48:25.453Z,60
2017-10-01T05:49:33.540Z,60
2017-10-01T05:50:41.626Z,60
2017-10-01T05:51:49.711Z,60
2017-10-01T05:52:57.797Z,59
2017-10-01T05:54:05.883Z,60
2017-10-01T05:55:13.971Z,59
2017-10-01T05:56:22.059Z,59
2017-10-01T05:57:30.146Z,59
2017-10-01T05:58:38.230Z,59
2017-10-01T05:59:46.326Z,59
2017-10-01T06:00:54.411Z,59
2017-10-01T06:02:02.499Z,59
2017-10-01T06:03:10.586Z,59
2017-10-01T06:04:18.675Z,59
2017-10-01T06:05:26.762Z,59
2017-10-01T06:06:34.844Z,59
2017-10-01T06:07:42.932Z,59
2017-10-01T06:08:51.020Z,59
2017-10-01T06:09:59.107Z,59
2017-10-01T06:11:07.190Z,59
2017-10-01T06:12:15.276Z,59
2017-10-01T06:13:23.367Z,59
2017-10-01T06:14:31.448Z,59
2017-10-01T06:15:39.538Z,59
2017-10-01T06:16:47.625Z,59
2017-10-01T06:17:55.720Z,59
2017-10-01T06:19:03.810Z,59
2017-10-01T06:20:11.893Z,59
2017-10-01T06:21:19.979Z,59
2017-10-01T06:22:28.066Z,59
2017-10-01T06:23:36.154Z,59
2017-10-01T06:24:44.239Z,59
2017-10-01T06:25:52.326Z,59
2017-10-01T06:27:00.414Z,59
2017-10-01T06:28:08.496Z,59
2017-10-01T06:29:16.583Z,59
2017-10-01T06:30:24.670Z,59
2017-10-01T06:31:32.755Z,59
2017-10-01T06:32:40.843Z,59
2017-10-01T06:33:48.929Z,59
2017-10-01T06:34:57.032Z,59
2017-10-01T06:36:05.101Z,59
2017-10-01T06:37:13.185Z,58
2017-10-01T06:38:21.273Z,59
2017-10-01T06:39:29.358Z,58
2017-10-01T06:40:37.447Z,58
2017-10-01T06:41:45.538Z,58
2017-10-01T06:42:53.624Z,58
2017-10-01T06:44:01.709Z,58
2017-10-01T06:45:09.795Z,58
2017-10-01T06:46:17.880Z,58
2017-10-01T06:47:25.966Z,58
2017-10-01T06:48:34.053Z,58
2017-10-01T06:49:42.142Z,58
2017-10-01T06:50:50.227Z,59
2017-10-01T06:51:58.314Z,58
2017-10-01T06:53:06.400Z,58
2017-10-01T06:54:14.488Z,59
2017-10-01T06:55:22.574Z,58
2017-10-01T06:56:30.668Z,58
2017-10-01T06:57:38.759Z,59
2017-10-01T06:58:46.844Z,58
2017-10-01T06:59:54.931Z,59
2017-10-01T07:01:03.014Z,59
2017-10-01T07:02:11.100Z,59
2017-10-01T07:03:19.282Z,59
2017-10-01T07:04:27.276Z,59
2017-10-01T07:05:35.357Z,59
2017-10-01T07:06:43.444Z,59
2017-10-01T07:07:51.640Z,59
2017-10-01T07:08:59.617Z,59
2017-10-01T07:10:07.704Z,59
2017-10-01T07:11:15.792Z,59
2017-10-01T07:12:23.875Z,59
2017-10-01T07:13:31.963Z,58
2017-10-01T07:14:40.051Z,58
2017-10-01T07:15:48.135Z,57
2017-10-01T07:16:56.228Z,56
2017-10-01T07:18:04.306Z,56
2017-10-01T07:19:12.395Z,56
2017-10-01T07:20:20.480Z,56
2017-10-01T07:21:28.567Z,56
2017-10-01T07:22:36.648Z,55
2017-10-01T07:23:44.741Z,55
2017-10-01T07:24:52.833Z,55
2017-10-01T07:26:00.918Z,55
2017-10-01T07:27:09.026Z,55
2017-10-01T07:28:17.459Z,55
2017-10-01T07:29:25.547Z,55
2017-10-01T07:30:33.631Z,55
2017-10-01T07:31:41.722Z,54
2017-10-01T07:32:49.825Z,54
2017-10-01T07:33:57.920Z,55
2017-10-01T07:35:06.034Z,55
2017-10-01T07:36:14.179Z,54
2017-10-01T07:37:22.264Z,54
2017-10-01T07:38:30.427Z,54
2017-10-01T07:39:38.452Z,54
2017-10-01T07:40:46.537Z,54
2017-10-01T07:41:54.632Z,54
2017-10-01T07:43:02.709Z,54
2017-10-01T07:44:10.795Z,54
2017-10-01T07:45:18.887Z,54
2017-10-01T07:46:26.981Z,54
2017-10-01T07:47:35.067Z,54
2017-10-01T07:48:43.154Z,54
2017-10-01T07:49:51.239Z,54
2017-10-01T07:50:59.329Z,54
2017-10-01T07:52:07.414Z,54
2017-10-01T07:53:15.522Z,54
2017-10-01T07:54:23.580Z,54
2017-10-01T07:55:31.675Z,54
2017-10-01T07:56:39.761Z,54
2017-10-01T07:57:47.845Z,54
2017-10-01T07:58:56.183Z,54
2017-10-01T08:00:04.016Z,54
2017-10-01T08:01:12.101Z,55
2017-10-01T08:02:20.199Z,55
2017-10-01T08:03:28.296Z,55
2017-10-01T08:04:36.391Z,55
2017-10-01T08:05:44.465Z,55
2017-10-01T08:06:52.548Z,55
2017-10-01T08:08:00.635Z,56
2017-10-01T08:09:08.724Z,56
2017-10-01T08:10:16.812Z,56
2017-10-01T08:11:24.897Z,56
2017-10-01T08:12:32.983Z,56
2017-10-01T08:13:41.073Z,57
2017-10-01T08:14:49.156Z,56
2017-10-01T08:15:57.243Z,55
2017-10-01T08:17:05.334Z,55
2017-10-01T08:18:13.414Z,55
2017-10-01T08:19:21.503Z,55
2017-10-01T08:20:29.597Z,55
2017-10-01T08:21:37.796Z,54
2017-10-01T08:22:45.771Z,54
2017-10-01T08:23:53.853Z,54
2017-10-01T08:26:10.170Z,54
2017-10-01T08:27:18.114Z,54
2017-10-01T08:28:26.200Z,53
2017-10-01T08:29:34.291Z,53
2017-10-01T08:30:42.376Z,53
2017-10-01T08:31:50.467Z,54
2017-10-01T08:32:58.544Z,54
2017-10-01T08:34:06.631Z,53
2017-10-01T08:35:14.719Z,53
2017-10-01T08:36:22.805Z,53
2017-10-01T08:37:30.890Z,53
2017-10-01T08:38:38.975Z,52
2017-10-01T08:39:47.062Z,52
2017-10-01T08:40:55.149Z,51
2017-10-01T08:42:03.237Z,51
2017-10-01T08:43:11.319Z,50
2017-10-01T08:44:19.406Z,50
2017-10-01T08:45:27.500Z,50
2017-10-01T08:46:35.579Z,50
2017-10-01T08:47:43.665Z,49
2017-10-01T08:48:51.751Z,50
2017-10-01T08:49:59.837Z,49
2017-10-01T08:51:08.378Z,49
2017-10-01T08:52:16.150Z,48
2017-10-01T08:53:24.237Z,48
2017-10-01T08:54:32.325Z,48
2017-10-01T08:55:40.420Z,48
2017-10-01T08:56:48.504Z,47
2017-10-01T08:57:56.589Z,47
2017-10-01T08:59:04.677Z,47
2017-10-01T09:00:12.764Z,48
2017-10-01T09:01:20.850Z,48
2017-10-01T09:02:28.937Z,48
2017-10-01T09:03:37.023Z,48
2017-10-01T09:04:45.108Z,49
2017-10-01T09:05:53.195Z,49
2017-10-01T09:07:01.279Z,49
2017-10-01T09:08:09.365Z,49
2017-10-01T09:09:17.451Z,49
2017-10-01T09:10:25.555Z,49
2017-10-01T09:11:33.632Z,49
2017-10-01T09:12:41.710Z,49
2017-10-01T09:13:49.798Z,49
2017-10-01T09:14:57.883Z,49
2017-10-01T09:16:05.968Z,49
2017-10-01T09:17:14.055Z,49
2017-10-01T09:18:22.141Z,49
2017-10-01T09:19:30.228Z,49
2017-10-01T09:20:38.513Z,49
2017-10-01T09:21:46.595Z,50
2017-10-01T09:22:54.700Z,50
2017-10-01T09:24:02.770Z,50
2017-10-01T09:25:10.855Z,50
2017-10-01T09:26:18.941Z,50
2017-10-01T09:27:27.027Z,50
2017-10-01T09:28:35.121Z,50
2017-10-01T09:29:43.209Z,50
2017-10-01T09:30:51.289Z,50
2017-10-01T09:31:59.375Z,50
2017-10-01T09:33:07.464Z,50
2017-10-01T09:34:15.548Z,50
2017-10-01T09:35:23.636Z,50
2017-10-01T09:36:31.719Z,50
2017-10-01T09:37:39.806Z,50
2017-10-01T09:38:47.890Z,50
2017-10-01T09:39:56.306Z,50
2017-10-01T09:41:04.105Z,50
2017-10-01T09:42:12.149Z,50
2017-10-01T09:43:20.244Z,50
2017-10-01T09:44:28.329Z,50
2017-10-01T09:45:36.427Z,51
2017-10-01T09:46:44.493Z,50
2017-10-01T09:47:52.578Z,50
2017-10-01T09:49:00.664Z,50
2017-10-01T09:50:08.760Z,50
2017-10-01T09:51:16.837Z,50
2017-10-01T09:52:24.932Z,50
2017-10-01T09:53:33.020Z,50
2017-10-01T09:54:41.103Z,51
2017-10-01T09:55:49.189Z,50
2017-10-01T09:56:57.276Z,51
2017-10-01T09:58:05.359Z,51
2017-10-01T09:59:13.445Z,51
2017-10-01T10:00:21.541Z,51
2017-10-01T10:01:29.625Z,51
2017-10-01T10:02:37.737Z,52
2017-10-01T10:03:45.824Z,51
2017-10-01T10:04:53.909Z,51
2017-10-01T10:06:01.993Z,52
2017-10-01T10:07:10.078Z,52
2017-10-01T10:08:18.163Z,52
2017-10-01T10:09:26.250Z,52
2017-10-01T10:10:34.340Z,52
2017-10-01T10:11:42.421Z,52
2017-10-01T10:12:50.525Z,52
2017-10-01T10:13:58.592Z,52
2017-10-01T10:15:06.679Z,52
2017-10-01T10:16:14.764Z,52
2017-10-01T10:17:22.850Z,52
2017-10-01T10:18:30.934Z,52
2017-10-01T10:19:39.019Z,52
2017-10-01T10:20:47.115Z,52
2017-10-01T10:21:55.191Z,52
2017-10-01T10:23:03.279Z,52
2017-10-01T10:24:11.387Z,52
2017-10-01T10:25:19.476Z,52
2017-10-01T10:26:27.564Z,52
2017-10-01T10:27:35.648Z,52
2017-10-01T10:28:43.736Z,52
2017-10-01T10:29:51.822Z,52
2017-10-01T10:30:59.907Z,52
2017-10-01T10:32:07.997Z,52
2017-10-01T10:33:16.075Z,52
2017-10-01T10:34:24.164Z,52
2017-10-01T10:35:32.248Z,52
2017-10-01T10:36:40.336Z,51
2017-10-01T10:37:48.429Z,51
2017-10-01T10:38:56.505Z,51
2017-10-01T10:40:04.590Z,51
2017-10-01T10:41:12.681Z,51
2017-10-01T10:42:20.762Z,52
2017-10-01T10:43:28.844Z,52
2017-10-01T10:44:36.931Z,52
2017-10-01T10:45:45.016Z,52
2017-10-01T10:46:53.135Z,52
2017-10-01T10:48:01.187Z,52
2017-10-01T10:49:09.276Z,52
2017-10-01T10:50:17.360Z,52
2017-10-01T10:51:25.446Z,52
2017-10-01T10:52:33.530Z,52
2017-10-01T10:53:41.625Z,52
2017-10-01T10:54:49.721Z,52
2017-10-01T10:55:57.788Z,52
2017-10-01T10:57:05.875Z,52
2017-10-01T10:58:13.957Z,52
2017-10-01T10:59:22.044Z,52
2017-10-01T11:00:30.129Z,52
2017-10-01T11:01:38.215Z,52
2017-10-01T11:02:46.300Z,52
2017-10-01T11:03:54.385Z,52
2017-10-01T11:05:02.473Z,52
2017-10-01T11:06:10.555Z,52
2017-10-01T11:07:18.642Z,52
2017-10-01T11:08:27.008Z,52
2017-10-01T11:09:35.095Z,52
2017-10-01T11:10:43.179Z,52
2017-10-01T11:11:51.267Z,52
2017-10-01T11:12:59.354Z,53
2017-10-01T11:14:07.439Z,52
2017-10-01T11:15:15.529Z,53
2017-10-01T11:16:23.607Z,53
2017-10-01T11:17:31.694Z,53
2017-10-01T11:18:39.779Z,53
2017-10-01T11:19:47.875Z,53
2017-10-01T11:20:55.960Z,53
2017-10-01T11:22:04.079Z,53
2017-10-01T11:23:12.168Z,54
2017-10-01T11:24:20.264Z,54
2017-10-01T11:25:28.347Z,54
2017-10-01T11:26:36.431Z,54
2017-10-01T11:27:44.519Z,54
2017-10-01T11:28:52.614Z,54
2017-10-01T11:30:01.017Z,54
2017-10-01T11:31:08.781Z,54
2017-10-01T11:32:16.862Z,54
2017-10-01T11:33:24.959Z,55
2017-10-01T11:34:33.043Z,55
2017-10-01T11:35:41.133Z,54
2017-10-01T11:36:49.217Z,55
2017-10-01T11:37:57.302Z,55
2017-10-01T11:39:05.389Z,55
2017-10-01T11:40:13.472Z,55
2017-10-01T11:41:21.556Z,55
2017-10-01T11:42:29.668Z,55
2017-10-01T11:43:37.765Z,55
2017-10-01T11:44:45.850Z,55
2017-10-01T11:45:53.935Z,55
2017-10-01T11:47:02.024Z,55
2017-10-01T11:48:10.105Z,55
2017-10-01T11:49:18.192Z,55
2017-10-01T11:50:26.276Z,56
2017-10-01T11:51:34.362Z,55
2017-10-01T11:52:42.447Z,55
2017-10-01T11:53:50.533Z,56
2017-10-01T11:54:58.621Z,56
2017-10-01T11:56:06.707Z,55
2017-10-01T11:57:14.793Z,56
2017-10-01T11:58:22.878Z,55
2017-10-01T11:59:30.969Z,56
2017-10-01T12:00:39.048Z,56
2017-10-01T12:01:47.133Z,56
2017-10-01T12:02:55.218Z,56
2017-10-01T12:04:03.305Z,56
2017-10-01T12:05:11.392Z,57
2017-10-01T12:06:19.476Z,56
2017-10-01T12:07:27.568Z,56
2017-10-01T12:08:35.649Z,56
2017-10-01T12:09:43.858Z,57
2017-10-01T12:10:51.814Z,57
2017-10-01T12:11:59.903Z,57
2017-10-01T12:13:08.008Z,57
2017-10-01T12:14:16.096Z,57
2017-10-01T12:15:24.181Z,57
2017-10-01T12:16:32.262Z,57
2017-10-01T12:17:40.348Z,57
2017-10-01T12:18:48.433Z,57
2017-10-01T12:19:56.519Z,57
2017-10-01T12:21:04.610Z,57
2017-10-01T12:22:12.692Z,57
2017-10-01T12:23:20.779Z,57
2017-10-01T12:24:28.864Z,57
2017-10-01T12:25:36.959Z,57
2017-10-01T12:26:45.050Z,57
2017-10-01T12:27:53.131Z,57
2017-10-01T12:29:01.214Z,58
2017-10-01T12:30:09.299Z,57
2017-10-01T12:31:17.386Z,58
2017-10-01T12:32:25.475Z,57
2017-10-01T12:33:33.557Z,58
2017-10-01T12:34:41.649Z,57
2017-10-01T12:35:49.727Z,58
2017-10-01T12:36:57.826Z,58
2017-10-01T12:38:05.910Z,58
2017-10-01T12:39:13.992Z,57
2017-10-01T12:40:22.078Z,58
2017-10-01T12:41:30.166Z,58
2017-10-01T12:42:38.248Z,58
2017-10-01T12:43:46.334Z,58
2017-10-01T12:44:54.421Z,58
2017-10-01T12:46:02.513Z,57
2017-10-01T12:47:10.593Z,58
2017-10-01T12:48:18.679Z,57
2017-10-01T12:49:26.764Z,57
2017-10-01T12:50:34.852Z,57
2017-10-01T12:51:42.935Z,58
2017-10-01T12:52:51.021Z,58
2017-10-01T12:53:59.104Z,58
2017-10-01T12:55:07.192Z,58
2017-10-01T12:56:15.278Z,58
2017-10-01T12:57:23.365Z,58
2017-10-01T12:58:31.449Z,58
2017-10-01T12:59:39.536Z,58
2017-10-01T13:00:47.621Z,58
2017-10-01T13:01:55.707Z,58
2017-10-01T13:03:03.792Z,58
2017-10-01T13:04:11.913Z,58
2017-10-01T13:05:19.964Z,59
2017-10-01T13:06:28.048Z,58
2017-10-01T13:07:36.139Z,58
2017-10-01T13:08:44.219Z,58
2017-10-01T13:09:52.307Z,58
2017-10-01T13:11:00.393Z,58
2017-10-01T13:12:08.478Z,58
2017-10-01T13:13:16.586Z,58
2017-10-01T13:14:24.655Z,58
2017-10-01T13:15:32.741Z,59
2017-10-01T13:16:40.827Z,59
2017-10-01T13:17:48.913Z,59
2017-10-01T13:18:56.997Z,59
2017-10-01T13:20:05.091Z,59
2017-10-01T13:21:13.183Z,58
2017-10-01T13:22:21.272Z,59
2017-10-01T13:23:29.356Z,59
2017-10-01T13:24:37.449Z,59
2017-10-01T13:25:45.536Z,59
2017-10-01T13:26:53.621Z,59
2017-10-01T13:28:01.720Z,59
2017-10-01T13:29:09.814Z,58
2017-10-01T13:30:17.902Z,59
2017-10-01T13:31:25.986Z,59
2017-10-01T13:32:34.073Z,59
2017-10-01T13:33:42.157Z,59
2017-10-01T13:34:50.245Z,58
2017-10-01T13:35:58.331Z,59
2017-10-01T13:37:06.442Z,59
2017-10-01T13:38:14.526Z,59
2017-10-01T13:39:22.624Z,59
2017-10-01T13:40:30.695Z,58
2017-10-01T13:41:38.941Z,59
2017-10-01T13:42:46.874Z,59
2017-10-01T13:43:54.963Z,59
2017-10-01T13:45:03.050Z,59
2017-10-01T13:46:11.133Z,59
2017-10-01T13:47:19.228Z,59
2017-10-01T13:48:27.314Z,59
2017-10-01T13:49:35.598Z,59
2017-10-01T13:50:44.073Z,59
2017-10-01T13:51:52.159Z,59
2017-10-01T13:53:00.254Z,59
2017-10-01T13:54:08.341Z,59
2017-10-01T13:55:16.427Z,59
2017-10-01T13:56:24.514Z,59
2017-10-01T13:57:32.601Z,59
2017-10-01T13:58:40.692Z,59
2017-10-01T13:59:48.774Z,59
2017-10-01T14:00:56.862Z,59
2017-10-01T14:02:04.944Z,59
2017-10-01T14:03:13.031Z,59
2017-10-01T14:04:21.116Z,59
2017-10-01T14:05:29.204Z,59
2017-10-01T14:06:37.295Z,59
2017-10-01T14:07:45.376Z,59
2017-10-01T14:08:53.463Z,59
2017-10-01T14:10:02.029Z,59
2017-10-01T14:11:09.634Z,59
2017-10-01T14:12:17.804Z,59
2017-10-01T14:13:25.890Z,59
2017-10-01T14:14:33.976Z,59
2017-10-01T14:15:42.062Z,59
2017-10-01T14:16:50.166Z,59
2017-10-01T14:17:58.260Z,59
2017-10-01T14:19:06.345Z,59
2017-10-01T14:20:14.431Z,59
2017-10-01T14:21:22.548Z,59
2017-10-01T14:22:30.633Z,59
2017-10-01T14:23:38.723Z,59
2017-10-01T14:24:46.808Z,59
2017-10-01T14:25:54.897Z,59
2017-10-01T14:27:02.982Z,59
2017-10-01T14:28:11.081Z,59
2017-10-01T14:29:19.155Z,58
2017-10-01T14:30:27.241Z,58
2017-10-01T14:31:35.328Z,58
2017-10-01T14:32:43.447Z,58
2017-10-01T14:33:51.533Z,58
2017-10-01T14:34:59.621Z,58
2017-10-01T14:36:07.708Z,58
2017-10-01T14:37:15.794Z,58
2017-10-01T14:38:23.879Z,58
2017-10-01T14:39:31.966Z,58
2017-10-01T14:40:40.372Z,59
2017-10-01T14:41:48.149Z,59
2017-10-01T14:42:56.225Z,59
2017-10-01T14:44:04.313Z,59
2017-10-01T14:45:12.399Z,58
2017-10-01T14:46:20.489Z,58
2017-10-01T14:47:28.572Z,58
2017-10-01T14:48:36.660Z,58
2017-10-01T14:49:44.743Z,58
2017-10-01T14:50:52.831Z,58
2017-10-01T14:52:00.919Z,59
2017-10-01T14:53:09.002Z,58
2017-10-01T14:54:17.090Z,58
2017-10-01T14:55:25.178Z,58
2017-10-01T14:56:33.263Z,58
2017-10-01T14:57:41.361Z,58
2017-10-01T14:58:49.448Z,58
2017-10-01T14:59:57.534Z,58
2017-10-01T15:01:05.617Z,58
2017-10-01T15:02:13.710Z,58
2017-10-01T15:03:21.794Z,58
2017-10-01T15:04:29.886Z,58
2017-10-01T15:05:37.983Z,58
2017-10-01T15:06:46.073Z,58
2017-10-01T15:07:54.155Z,58
2017-10-01T15:09:02.240Z,58
2017-10-01T15:10:10.343Z,58
2017-10-01T15:11:18.431Z,58
2017-10-01T15:12:26.517Z,58
2017-10-01T15:13:34.605Z,58
2017-10-01T15:14:42.688Z,58
2017-10-01T15:15:50.779Z,58
2017-10-01T15:16:58.883Z,58
2017-10-01T15:18:06.951Z,58
2017-10-01T15:19:15.076Z,58
2017-10-01T15:20:23.143Z,58
2017-10-01T15:21:31.214Z,58
2017-10-01T15:22:39.298Z,58
2017-10-01T15:23:47.382Z,58
2017-10-01T15:24:55.471Z,58
2017-10-01T15:26:03.575Z,58
2017-10-01T15:27:11.741Z,58
2017-10-01T15:28:19.758Z,58
2017-10-01T15:29:27.846Z,58
2017-10-01T15:30:35.940Z,58
2017-10-01T15:31:44.028Z,58
2017-10-01T15:32:52.117Z,58
2017-10-01T15:34:00.200Z,58
2017-10-01T15:35:08.290Z,58
2017-10-01T15:36:16.375Z,58
2017-10-01T15:37:24.460Z,58
2017-10-01T15:38:32.546Z,58
2017-10-01T15:39:40.637Z,58
2017-10-01T15:40:48.722Z,58
2017-10-01T15:41:56.810Z,58
2017-10-01T15:43:04.898Z,58
2017-10-01T15:44:12.982Z,58
2017-10-01T15:45:21.071Z,58
2017-10-01T15:46:29.154Z,58
2017-10-01T15:47:37.242Z,58
2017-10-01T15:48:45.332Z,58
2017-10-01T15:49:53.417Z,58
2017-10-01T15:51:01.506Z,58
2017-10-01T15:52:09.592Z,58
2017-10-01T15:53:17.681Z,58
2017-10-01T15:54:25.768Z,58
2017-10-01T15:55:33.852Z,58
2017-10-01T15:56:41.940Z,58
2017-10-01T15:57:50.028Z,58
2017-10-01T15:58:58.115Z,58
2017-10-01T16:00:06.214Z,58
2017-10-01T16:01:14.289Z,58
2017-10-01T16:02:22.378Z,58
2017-10-01T16:03:30.464Z,58
2017-10-01T16:04:38.552Z,58
2017-10-01T16:05:46.641Z,58
2017-10-01T16:06:54.722Z,58
2017-10-01T16:08:02.811Z,58
2017-10-01T16:09:10.899Z,58
2017-10-01T16:10:18.987Z,58
2017-10-01T16:11:27.080Z,57